Flight Track Log - Related Links

Times and Time Zones

All times are in EDT time to prevent confusion due to time zone crossing. See the SWA1802 flight status page for this flight to view local times or setup timezone preferences in your user account.

Time Position Orientation Groundspeed Altitude Reporting Facility
EDT Latitude Longitude Course Direction KTS MPH feet Rate Location/Type
Mon 06:32:17 PM 41.8050 -87.7350 North 175 201 1,600  Level FlightAware
Mon 06:32:42 PM 41.8230 -87.7500 328° Northwest 223 257 2,000 1,034 Climbing FlightAware
Mon 06:32:46 PM 41.8250 -87.7550 298° West 227 261 2,100 2,000 Climbing FlightAware
Mon 06:32:54 PM 41.8260 -87.7670 276° West 231 266 2,400 1,500 Climbing FlightAware
Mon 06:33:14 PM 41.8200 -87.7930 253° West 224 258 2,800 545 Climbing FlightAware
Mon 06:33:38 PM 41.8110 -87.8240 249° West 216 249 2,800 136 Level FlightAware
Mon 06:33:58 PM 41.8030 -87.8490 247° West 222 255 2,900 900 Climbing FlightAware
Mon 06:34:18 PM 41.7950 -87.8740 247° West 249 287 3,400 1,588 Climbing FlightAware
Mon 06:34:32 PM 41.7880 -87.8960 247° West 258 297 3,800 2,333 Climbing FlightAware
Mon 06:34:54 PM 41.7780 -87.9280 247° West 257 296 4,800 2,800 Climbing FlightAware
Mon 06:35:02 PM 41.7750 -87.9390 250° West 257 296 5,200 3,000 Climbing FlightAware
Mon 06:35:22 PM 41.7740 -87.9710 268° West 264 304 6,200 2,850 Climbing FlightAware
Mon 06:35:42 PM 41.7730 -88.0060 268° West 275 316 7,100 3,150 Climbing FlightAware
Mon 06:36:02 PM 41.7710 -88.0410 266° West 273 314 8,300 3,450 Climbing FlightAware
Mon 06:36:22 PM 41.7700 -88.0750 268° West 275 316 9,400 2,875 Climbing FlightAware
Mon 06:36:50 PM 41.7680 -88.1240 267° West 286 329 10,600 2,813 Climbing FlightAware
Mon 06:37:26 PM 41.7650 -88.1870 266° West 289 333 12,400 2,750 Climbing FlightAware
Mon 06:38:02 PM 41.7630 -88.2520 268° West 297 342 13,900 2,229 Climbing FlightAware
Mon 06:38:36 PM 41.7600 -88.3130 266° West 311 358 15,000 1,833 Climbing FlightAware
Mon 06:39:14 PM 41.7570 -88.3960 267° West 343 395 16,100 1,971 Climbing FlightAware
Mon 06:39:46 PM 41.7540 -88.4640 267° West 349 402 17,300 2,294 Climbing FlightAware
Mon 06:40:22 PM 41.7510 -88.5430 267° West 355 409 18,700 2,314 Climbing FlightAware
Mon 06:40:56 PM 41.7470 -88.6190 266° West 360 414 20,000 2,294 Climbing FlightAware
Mon 06:41:30 PM 41.7440 -88.6920 267° West 362 417 21,300 2,160 Climbing FlightAware
Mon 06:41:46 PM 41.7400 -88.7290 262° West 370 426 21,800 1,731 Climbing FlightAware
Mon 06:42:22 PM 41.7200 -88.8080 251° West 380 437 22,800 1,714 Climbing FlightAware
Mon 06:42:56 PM 41.7030 -88.8870 254° West 385 443 23,800 2,057 Climbing FlightAware
Mon 06:43:32 PM 41.6850 -88.9690 254° West 378 435 25,200 2,083 Climbing FlightAware
Mon 06:44:08 PM 41.6680 -89.0490 254° West 378 435 26,300 1,765 Climbing FlightAware
Mon 06:44:40 PM 41.6540 -89.1180 255° West 380 437 27,200 1,500 Climbing FlightAware
Mon 06:45:16 PM 41.6360 -89.2040 254° West 385 443 28,000 833 Climbing FlightAware
Mon 06:45:52 PM 41.6180 -89.2870 254° West 406 467 28,200 333 Climbing FlightAware
Mon 06:46:28 PM 41.6000 -89.3730 254° West 422 486 28,400 706 Climbing FlightAware
Mon 06:47:00 PM 41.5820 -89.4540 253° West 427 491 29,000 1,147 Climbing FlightAware
Mon 06:47:36 PM 41.5620 -89.5480 254° West 430 495 29,700 1,167 Climbing FlightAware
Mon 06:48:12 PM 41.5420 -89.6410 254° West 431 496 30,400 1,500 Climbing FlightAware
Mon 06:48:44 PM 41.5240 -89.7210 253° West 422 486 31,400 1,971 Climbing FlightAware
Mon 06:49:22 PM 41.5040 -89.8140 254° West 408 470 32,700 1,917 Climbing FlightAware
Mon 06:49:56 PM 41.4870 -89.8930 254° West 400 460 33,700 1,114 Climbing FlightAware
Mon 06:50:32 PM 41.4680 -89.9790 254° West 400 460 34,000 250 Climbing FlightAware
Mon 06:51:08 PM 41.4490 -90.0650 254° West 399 459 34,000  Level FlightAware
Mon 06:51:38 PM 41.4340 -90.1330 254° West 399 459 34,000  Level FlightAware
Mon 06:52:16 PM 41.4140 -90.2240 254° West 398 458 34,000  Level FlightAware
Mon 06:52:48 PM 41.3970 -90.3000 253° West 398 458 34,000  Level FlightAware
Mon 06:53:28 PM 41.3760 -90.3930 253° West 397 457 34,000  Level FlightAware
Mon 06:54:02 PM 41.3580 -90.4720 253° West 396 456 34,000  Level FlightAware
Mon 06:54:38 PM 41.3400 -90.5530 254° West 396 456 34,000  Level FlightAware
Mon 06:55:10 PM 41.3230 -90.6300 254° West 396 456 34,000  Level FlightAware
Mon 06:55:51 PM 41.2970 -90.7190 249° West 397 457 34,000  Level FlightAware
Mon 06:56:28 PM 41.2720 -90.8050 249° West 396 456 34,000  Level FlightAware
Mon 06:57:02 PM 41.2490 -90.8840 249° West 397 457 34,000  Level FlightAware
Mon 06:57:37 PM 41.2240 -90.9660 248° West 398 458 34,000  Level FlightAware
Mon 06:58:10 PM 41.2030 -91.0370 249° West 397 457 34,000  Level FlightAware
Mon 06:58:46 PM 41.1780 -91.1200 248° West 397 457 34,000  Level FlightAware
Mon 06:59:20 PM 41.1560 -91.1960 249° West 397 457 34,000  Level FlightAware
Mon 06:59:54 PM 41.1340 -91.2710 249° West 397 457 34,000  Level FlightAware
Mon 07:00:28 PM 41.1100 -91.3510 248° West 398 458 34,000  Level FlightAware
Mon 07:01:04 PM 41.0860 -91.4300 248° West 397 457 34,000  Level FlightAware
Mon 07:01:38 PM 41.0620 -91.5080 248° West 394 453 34,000  Level FlightAware
Mon 07:02:08 PM 41.0420 -91.5740 248° West 394 453 34,000  Level FlightAware
Mon 07:03:15 PM 40.9990 -91.7170 248° West 393 452 34,000  Level FlightAware
Mon 07:03:54 PM 40.9700 -91.8100 248° West 390 449 34,000  Level FlightAware
Mon 07:04:43 PM 40.9460 -91.9130 253° West 386 444 34,000  Level FlightAware
Mon 07:05:18 PM 40.9320 -92.0020 258° West 383 441 34,000  Level FlightAware
Mon 07:05:50 PM 40.9190 -92.0750 257° West 384 442 34,000  Level FlightAware
Mon 07:06:33 PM 40.9040 -92.1570 256° West 384 442 34,000  Level FlightAware
Mon 07:07:08 PM 40.8870 -92.2540 257° West 388 447 34,000  Level FlightAware
Mon 07:07:55 PM 40.8690 -92.3530 257° West 388 447 34,000 220 Level FlightAware
Mon 07:08:30 PM 40.8530 -92.4440 257° West 386 444 34,300 1,014 Climbing FlightAware
Mon 07:09:06 PM 40.8380 -92.5250 256° West 378 435 35,200 943 Climbing FlightAware
Mon 07:09:40 PM 40.8250 -92.5910 255° West 377 434 35,400 686 Climbing FlightAware
Mon 07:10:16 PM 40.8100 -92.6780 257° West 377 434 36,000 500 Climbing FlightAware
Mon 07:10:52 PM 40.7940 -92.7620 256° West 382 440 36,000  Level FlightAware
Mon 07:11:22 PM 40.7810 -92.8310 256° West 381 438 36,000  Level FlightAware
Mon 07:12:01 PM 40.7650 -92.9160 256° West 382 440 36,000  Level FlightAware
Mon 07:12:34 PM 40.7510 -92.9930 257° West 383 441 36,000  Level FlightAware
Mon 07:13:09 PM 40.7360 -93.0730 256° West 384 442 36,000  Level FlightAware
Mon 07:13:47 PM 40.7200 -93.1550 256° West 385 443 36,000  Level FlightAware
Mon 07:14:23 PM 40.7050 -93.2400 257° West 385 443 36,000  Level FlightAware
Mon 07:14:55 PM 40.6910 -93.3120 256° West 385 443 36,000  Level FlightAware
Mon 07:15:31 PM 40.6750 -93.3920 255° West 385 443 36,000  Level FlightAware
Mon 07:16:09 PM 40.6580 -93.4820 256° West 385 443 36,000  Level FlightAware
Mon 07:17:05 PM 40.6340 -93.6070 256° West 386 444 36,000  Level FlightAware
Mon 07:17:51 PM 40.6150 -93.7000 255° West 384 442 36,000  Level FlightAware
Mon 07:18:28 PM 40.6010 -93.7710 255° West 384 442 36,000  Level FlightAware
Mon 07:19:04 PM 40.5870 -93.8400 255° West 384 442 36,000  Level FlightAware
Mon 07:19:39 PM 40.5660 -93.9540 256° West 385 443 36,000  Level FlightAware
Mon 07:20:12 PM 40.5530 -94.0190 255° West 385 443 36,000  Level FlightAware
Mon 07:20:46 PM 40.5360 -94.1080 256° West 386 444 36,000  Level FlightAware
Mon 07:21:23 PM 40.5190 -94.1930 255° West 387 445 36,000  Level FlightAware
Mon 07:21:59 PM 40.5020 -94.2750 255° West 388 447 36,000  Level FlightAware
Mon 07:22:29 PM 40.4910 -94.3330 256° West 388 447 36,000  Level FlightAware
Mon 07:23:05 PM 40.4730 -94.4240 255° West 390 449 36,000  Level FlightAware
Mon 07:23:37 PM 40.4580 -94.4970 255° West 391 450 36,000  Level FlightAware
Mon 07:24:11 PM 40.4420 -94.5750 255° West 394 453 36,000  Level FlightAware
Mon 07:24:49 PM 40.4240 -94.6620 255° West 395 455 36,000  Level FlightAware
Mon 07:25:21 PM 40.4090 -94.7360 255° West 396 456 36,000  Level FlightAware
Mon 07:25:55 PM 40.3920 -94.8170 255° West 398 458 36,000  Level FlightAware
Mon 07:26:50 PM 40.3680 -94.9350 255° West 400 460 36,000  Level FlightAware
Mon 07:27:37 PM 40.3430 -95.0550 255° West 405 466 36,000  Level FlightAware
Mon 07:28:09 PM 40.3280 -95.1290 255° West 405 466 36,000  Level FlightAware
Mon 07:28:47 PM 40.3100 -95.2110 254° West 406 467 36,000  Level FlightAware
Mon 07:29:28 PM 40.2910 -95.3050 255° West 406 467 36,000  Level FlightAware
Mon 07:30:04 PM 40.2750 -95.3780 254° West 406 467 36,000  Level FlightAware
Mon 07:30:40 PM 40.2590 -95.4500 254° West 406 467 36,000  Level FlightAware
Mon 07:31:16 PM 40.2430 -95.5230 254° West 406 467 36,000  Level FlightAware
Mon 07:31:52 PM 40.2270 -95.5950 254° West 406 467 36,000  Level FlightAware
Mon 07:32:28 PM 40.2110 -95.6670 254° West 406 467 36,000  Level FlightAware
Mon 07:33:05 PM 40.1950 -95.7420 254° West 406 467 36,000  Level FlightAware
Mon 07:33:34 PM 40.1650 -95.8980 256° West 403 464 36,000  Level FlightAware
Mon 07:34:13 PM 40.1480 -95.9760 254° West 403 464 36,000  Level FlightAware
Mon 07:34:49 PM 40.1320 -96.0480 254° West 403 464 36,000  Level FlightAware
Mon 07:36:06 PM 40.0890 -96.2430 253° West 402 463 36,000  Level FlightAware
Mon 07:36:40 PM 40.0690 -96.3340 254° West 404 465 36,000  Level FlightAware
Mon 07:37:18 PM 40.0540 -96.4030 254° West 404 465 36,000  Level FlightAware
Mon 07:37:54 PM 40.0380 -96.4750 254° West 404 465 36,000  Level FlightAware
Mon 07:38:30 PM 40.0230 -96.5470 255° West 404 465 36,000  Level FlightAware
Mon 07:39:06 PM 40.0070 -96.6190 254° West 404 465 36,000  Level FlightAware
Mon 07:39:42 PM 39.9910 -96.6900 254° West 404 465 36,000  Level FlightAware
Mon 07:40:19 PM 39.9750 -96.7640 254° West 404 465 36,000  Level FlightAware
Mon 07:40:55 PM 39.9590 -96.8360 254° West 404 465 36,000  Level FlightAware
Mon 07:41:31 PM 39.9430 -96.9080 254° West 404 465 36,000  Level FlightAware
Mon 07:42:12 PM 39.9250 -96.9890 254° West 404 465 36,000  Level FlightAware
Mon 07:42:48 PM 39.9100 -97.0610 255° West 404 465 36,000  Level FlightAware
Mon 07:43:24 PM 39.8940 -97.1330 254° West 404 465 36,000  Level FlightAware
Mon 07:44:00 PM 39.8780 -97.2040 254° West 404 465 36,000  Level FlightAware
Mon 07:44:37 PM 39.8620 -97.2780 254° West 404 465 36,000  Level FlightAware
Mon 07:45:13 PM 39.8460 -97.3490 254° West 404 465 36,000  Level FlightAware
Mon 07:45:48 PM 39.7810 -97.6020 252° West 402 463 36,000  Level FlightAware
Mon 07:46:19 PM 39.7650 -97.6720 253° West 403 464 36,000  Level FlightAware
Mon 07:46:57 PM 39.7430 -97.7650 253° West 404 465 36,000  Level FlightAware
Mon 07:47:33 PM 39.7240 -97.8460 253° West 406 467 36,000  Level FlightAware
Mon 07:48:19 PM 39.7010 -97.9470 254° West 407 468 36,000  Level FlightAware
Mon 07:48:57 PM 39.6780 -98.0420 253° West 410 472 36,000  Level FlightAware
Mon 07:49:35 PM 39.6590 -98.1180 252° West 410 472 36,000  Level FlightAware
Mon 07:50:06 PM 39.6390 -98.2050 253° West 413 475 36,000  Level FlightAware
Mon 07:50:44 PM 39.6200 -98.2810 252° West 413 475 36,000  Level FlightAware
Mon 07:51:20 PM 39.6020 -98.3530 252° West 413 475 36,000  Level FlightAware
Mon 07:51:56 PM 39.5840 -98.4250 252° West 413 475 36,000  Level FlightAware
Mon 07:52:32 PM 39.5660 -98.4970 252° West 413 475 36,000  Level FlightAware
Mon 07:53:06 PM 39.5490 -98.5660 252° West 413 475 36,000  Level FlightAware
Mon 07:53:42 PM 39.5310 -98.6380 252° West 413 475 36,000  Level FlightAware
Mon 07:54:20 PM 39.5110 -98.7140 251° West 413 475 36,000  Level FlightAware
Mon 07:54:57 PM 39.4930 -98.7880 253° West 413 475 36,000  Level FlightAware
Mon 07:55:33 PM 39.4750 -98.8600 252° West 413 475 36,000  Level FlightAware
Mon 07:56:09 PM 39.4570 -98.9320 252° West 413 475 36,000  Level FlightAware
Mon 07:56:45 PM 39.4390 -99.0040 252° West 413 475 36,000  Level FlightAware
Mon 07:57:21 PM 39.4210 -99.0760 252° West 413 475 36,000  Level FlightAware
Mon 07:57:58 PM 39.4020 -99.1500 252° West 413 475 36,000  Level FlightAware
Mon 07:58:34 PM 39.3840 -99.2220 252° West 413 475 36,000  Level FlightAware
Mon 07:59:10 PM 39.3660 -99.2940 252° West 413 475 36,000  Level FlightAware
Mon 07:59:47 PM 39.3470 -99.3680 252° West 413 475 36,000  Level FlightAware
Mon 08:00:19 PM 39.2781 -99.6114 252° West 416 479 36,000  Level Denver Center
Mon 08:01:21 PM 39.2097 -99.7436 236° Southwest 415 478 36,000  Level Denver Center
Mon 08:02:23 PM 39.1500 -99.8656 238° Southwest 419 482 36,000  Level Denver Center
Mon 08:03:25 PM 39.0761 -100.0117 237° Southwest 418 481 36,000  Level Denver Center
Mon 08:04:38 PM 39.0150 -100.1306 237° Southwest 416 479 36,000  Level Denver Center
Mon 08:05:41 PM 38.9369 -100.2814 236° Southwest 416 479 36,000  Level Denver Center
Mon 08:06:43 PM 38.8675 -100.4167 237° Southwest 408 470 36,000  Level Denver Center
Mon 08:07:44 PM 38.8069 -100.5322 236° Southwest 409 471 36,000  Level Denver Center
Mon 08:08:46 PM 38.7442 -100.6464 235° Southwest 410 472 36,000  Level Denver Center
Mon 08:09:48 PM 38.6736 -100.7847 237° Southwest 415 478 36,000  Level Denver Center
Mon 08:11:02 PM 38.6136 -100.9022 237° Southwest 414 476 36,000  Level Denver Center
Mon 08:12:04 PM 38.5344 -101.0589 237° Southwest 414 476 36,000  Level Denver Center
Mon 08:13:06 PM 38.4667 -101.1967 238° Southwest 411 473 36,000  Level Denver Center
Mon 08:14:08 PM 38.4064 -101.3181 238° Southwest 420 483 36,000  Level Denver Center
Mon 08:15:10 PM 38.3361 -101.4572 237° Southwest 421 484 36,000  Level Denver Center
Mon 08:16:12 PM 38.2764 -101.5764 237° Southwest 419 482 36,000  Level Denver Center
Mon 08:17:14 PM 38.2086 -101.7133 238° Southwest 412 474 36,000  Level Denver Center
Mon 08:18:16 PM 38.1508 -101.8297 238° Southwest 409 471 36,000  Level Denver Center
Mon 08:19:18 PM 38.0836 -101.9650 238° Southwest 407 468 36,000  Level Denver Center
Mon 08:20:20 PM 38.0256 -102.0819 238° Southwest 409 471 36,000  Level Denver Center
Mon 08:21:22 PM 37.9578 -102.2175 238° Southwest 408 470 36,000  Level Denver Center
Mon 08:22:24 PM 37.9000 -102.3333 238° Southwest 407 468 36,000  Level Denver Center
Mon 08:23:26 PM 37.8433 -102.4483 238° Southwest 406 467 36,000  Level Denver Center
Mon 08:24:28 PM 37.7644 -102.5775 232° Southwest 402 463 36,000  Level Denver Center
Mon 08:25:29 PM 37.7094 -102.6669 232° Southwest 403 464 36,000  Level Denver Center
Mon 08:26:32 PM 37.6197 -102.8111 232° Southwest 409 471 36,000  Level Denver Center
Mon 08:27:34 PM 37.5533 -102.9208 233° Southwest 411 473 36,000  Level Denver Center
Mon 08:29:00 PM 37.4536 -103.0844 233° Southwest 411 473 36,000  Level Denver Center
Mon 08:30:02 PM 37.3761 -103.2133 233° Southwest 412 474 36,000  Level Denver Center
Mon 08:31:04 PM 37.3142 -103.3264 235° Southwest 412 474 36,000  Level Denver Center
Mon 08:31:37 PM 37.3144 -103.3944 270° West 405 466 36,000  Level Albuquerque Center
Mon 08:32:39 PM 37.3231 -103.5539 274° West 408 470 36,000  Level Albuquerque Center
Mon 08:33:40 PM 37.3392 -103.6894 279° West 408 470 36,000  Level Albuquerque Center
Mon 08:34:11 PM 37.3489 -103.7567 280° West 411 473 36,000  Level Denver Center
Mon 08:35:13 PM 37.3797 -103.9136 284° West 412 474 36,000  Level Denver Center
Mon 08:36:15 PM 37.4133 -104.0497 287° West 417 480 36,000  Level Denver Center
Mon 08:37:17 PM 37.4500 -104.1861 289° West 422 486 36,000  Level Denver Center
Mon 08:38:18 PM 37.4431 -104.3406 267° West 400 460 36,000  Level Denver Center
Mon 08:39:20 PM 37.4236 -104.4700 259° West 395 455 36,000  Level Denver Center
Mon 08:40:22 PM 37.4003 -104.6222 259° West 397 457 36,000  Level Denver Center
Mon 08:41:24 PM 37.3794 -104.7528 259° West 398 458 36,000  Level Denver Center
Mon 08:42:26 PM 37.3553 -104.9047 259° West 397 457 36,000  Level Denver Center
Mon 08:43:28 PM 37.3347 -105.0353 259° West 399 459 36,000  Level Denver Center
Mon 08:44:29 PM 37.3106 -105.1792 258° West 396 456 36,000  Level Denver Center
Mon 08:45:31 PM 37.2903 -105.3103 259° West 398 458 36,000  Level Denver Center
Mon 08:46:33 PM 37.2661 -105.4472 258° West 399 459 36,000  Level Denver Center
Mon 08:47:35 PM 37.2425 -105.5997 259° West 399 459 36,000  Level Denver Center
Mon 08:48:36 PM 37.2200 -105.7297 258° West 399 459 36,000  Level Denver Center
Mon 08:54:54 PM 37.0710 -106.5940 258° West 392 451 36,000  Level FlightAware
Mon 08:55:29 PM 37.0580 -106.6710 258° West 395 455 36,000  Level FlightAware
Mon 08:56:04 PM 37.0440 -106.7470 257° West 396 456 36,000  Level FlightAware
Mon 08:56:39 PM 37.0300 -106.8270 258° West 398 458 36,000  Level FlightAware
Mon 08:57:14 PM 37.0160 -106.9050 257° West 396 456 36,000  Level FlightAware
Mon 08:57:54 PM 37.0000 -106.9950 257° West 398 458 36,000  Level FlightAware
Mon 08:58:29 PM 36.9860 -107.0750 258° West 398 458 36,000  Level FlightAware
Mon 08:59:05 PM 36.9720 -107.1500 257° West 398 458 36,000  Level FlightAware
Mon 08:59:40 PM 36.9570 -107.2330 257° West 398 458 36,000  Level FlightAware
Mon 09:00:15 PM 36.9430 -107.3110 257° West 397 457 36,000  Level FlightAware
Mon 09:00:51 PM 36.9280 -107.3930 257° West 396 456 36,000  Level FlightAware
Mon 09:01:23 PM 36.9170 -107.4540 257° West 395 455 36,000  Level FlightAware
Mon 09:01:53 PM 36.9030 -107.5300 257° West 397 457 36,000  Level FlightAware
Mon 09:02:32 PM 36.8870 -107.6180 257° West 397 457 36,000  Level FlightAware
Mon 09:03:08 PM 36.8730 -107.6910 257° West 397 457 36,000  Level FlightAware
Mon 09:03:40 PM 36.8590 -107.7690 257° West 395 455 36,000  Level FlightAware
Mon 09:04:16 PM 36.8450 -107.8440 257° West 395 455 36,000  Level FlightAware
Mon 09:04:51 PM 36.8290 -107.9270 256° West 394 453 36,000  Level FlightAware
Mon 09:05:28 PM 36.8140 -108.0070 257° West 394 453 36,000  Level FlightAware
Mon 09:06:03 PM 36.8000 -108.0810 257° West 393 452 36,000  Level FlightAware
Mon 09:06:35 PM 36.7860 -108.1550 257° West 392 451 36,000  Level FlightAware
Mon 09:07:10 PM 36.7710 -108.2320 256° West 389 448 36,000  Level FlightAware
Mon 09:07:52 PM 36.7540 -108.3220 257° West 390 449 36,000  Level FlightAware
Mon 09:08:28 PM 36.7390 -108.4030 257° West 393 452 36,000  Level FlightAware
Mon 09:09:03 PM 36.7240 -108.4800 256° West 392 451 36,000  Level FlightAware
Mon 09:09:37 PM 36.7090 -108.5550 256° West 392 451 36,000  Level FlightAware
Mon 09:10:12 PM 36.6950 -108.6300 257° West 395 455 36,000  Level FlightAware
Mon 09:10:46 PM 36.6800 -108.7070 256° West 395 455 36,000  Level FlightAware
Mon 09:11:21 PM 36.6650 -108.7830 256° West 395 455 36,000  Level FlightAware
Mon 09:11:57 PM 36.6490 -108.8630 256° West 393 452 36,000  Level FlightAware
Mon 09:12:45 PM 36.6310 -108.9560 256° West 393 452 36,000  Level FlightAware
Mon 09:13:22 PM 36.6170 -109.0250 256° West 393 452 36,000  Level FlightAware
Mon 09:13:58 PM 36.6030 -109.0930 256° West 393 452 36,000  Level FlightAware
Mon 09:14:35 PM 36.5900 -109.1620 257° West 393 452 36,000  Level FlightAware
Mon 09:15:11 PM 36.5760 -109.2290 255° West 393 452 36,000  Level FlightAware
Mon 09:15:47 PM 36.5630 -109.2960 256° West 393 452 36,000  Level FlightAware
Mon 09:16:23 PM 36.5490 -109.3630 255° West 393 452 36,000  Level FlightAware
Mon 09:16:59 PM 36.5360 -109.4310 257° West 393 452 36,000  Level FlightAware
Mon 09:17:35 PM 36.5220 -109.4980 255° West 393 452 36,000  Level FlightAware
Mon 09:18:11 PM 36.5090 -109.5650 256° West 393 452 36,000  Level FlightAware
Mon 09:18:47 PM 36.4950 -109.6320 255° West 393 452 36,000  Level FlightAware
Mon 09:19:24 PM 36.4820 -109.7010 257° West 393 452 36,000  Level FlightAware
Mon 09:20:00 PM 36.4680 -109.7680 255° West 393 452 36,000  Level FlightAware
Mon 09:20:34 PM 36.4550 -109.8320 256° West 393 452 36,000  Level FlightAware
Mon 09:21:10 PM 36.4420 -109.8990 256° West 393 452 36,000  Level FlightAware
Mon 09:21:45 PM 36.3890 -110.1460 255° West 397 457 36,000  Level FlightAware
Mon 09:22:24 PM 36.3700 -110.2390 256° West 397 457 36,000  Level FlightAware
Mon 09:22:56 PM 36.3550 -110.3090 255° West 398 458 36,000  Level FlightAware
Mon 09:23:32 PM 36.3380 -110.3880 255° West 398 458 36,000  Level FlightAware
Mon 09:24:08 PM 36.3220 -110.4670 256° West 398 458 36,000  Level FlightAware
Mon 09:24:38 PM 36.3080 -110.5330 255° West 399 459 36,000  Level FlightAware
Mon 09:25:16 PM 36.2900 -110.6150 255° West 398 458 36,000  Level FlightAware
Mon 09:25:52 PM 36.2730 -110.6960 255° West 398 458 36,000  Level FlightAware
Mon 09:26:28 PM 36.2560 -110.7740 255° West 398 458 36,000  Level FlightAware
Mon 09:27:00 PM 36.2410 -110.8450 255° West 399 459 36,000  Level FlightAware
Mon 09:27:38 PM 36.2230 -110.9300 255° West 399 459 36,000  Level FlightAware
Mon 09:28:12 PM 36.2060 -111.0040 254° West 399 459 36,000  Level FlightAware
Mon 09:28:46 PM 36.1910 -111.0780 256° West 399 459 36,000  Level FlightAware
Mon 09:29:22 PM 36.1730 -111.1570 254° West 400 460 36,000  Level FlightAware
Mon 09:29:58 PM 36.1560 -111.2380 255° West 401 461 36,000  Level FlightAware
Mon 09:30:30 PM 36.1400 -111.3100 255° West 402 463 36,000  Level FlightAware
Mon 09:31:06 PM 36.1220 -111.3900 254° West 403 464 36,000  Level FlightAware
Mon 09:31:42 PM 36.1050 -111.4670 255° West 402 463 36,000  Level FlightAware
Mon 09:32:19 PM 36.0870 -111.5500 255° West 401 461 36,000  Level FlightAware
Mon 09:32:52 PM 36.0710 -111.6220 255° West 399 459 36,000  Level FlightAware
Mon 09:33:29 PM 36.0530 -111.7030 255° West 395 455 36,000  Level FlightAware
Mon 09:34:02 PM 36.0360 -111.7760 254° West 394 453 36,000  Level FlightAware
Mon 09:34:38 PM 36.0190 -111.8530 255° West 396 456 36,000  Level FlightAware
Mon 09:35:10 PM 36.0040 -111.9240 255° West 397 457 36,000  Level FlightAware
Mon 09:35:26 PM 36.0020 -111.9610 266° West 403 464 36,000  Level FlightAware
Mon 09:36:02 PM 36.0200 -112.0420 285° West 423 487 36,000  Level FlightAware
Mon 09:36:36 PM 36.0520 -112.1150 298° West 426 490 36,000  Level FlightAware
Mon 09:37:12 PM 36.0870 -112.1900 300° West 425 489 36,000  Level FlightAware
Mon 09:37:48 PM 36.1220 -112.2660 300° West 426 490 36,000  Level FlightAware
Mon 09:38:16 PM 36.1480 -112.3270 298° West 414 476 36,000  Level FlightAware
Mon 09:38:26 PM 36.1500 -112.3500 276° West 403 464 36,000  Level FlightAware
Mon 09:38:36 PM 36.1490 -112.3720 267° West 397 457 36,000  Level FlightAware
Mon 09:39:08 PM 36.1250 -112.4390 246° West 392 451 36,000  Level FlightAware
Mon 09:39:45 PM 36.0960 -112.5100 243° Southwest 393 452 36,000  Level FlightAware
Mon 09:40:20 PM 36.0670 -112.5810 243° Southwest 394 453 36,000  Level FlightAware
Mon 09:40:52 PM 36.0410 -112.6460 244° Southwest 395 455 36,000  Level FlightAware
Mon 09:41:26 PM 36.0140 -112.7140 244° Southwest 395 455 36,000  Level FlightAware
Mon 09:42:04 PM 35.9860 -112.7840 244° Southwest 396 456 36,000  Level FlightAware
Mon 09:42:38 PM 35.9570 -112.8540 243° Southwest 397 457 36,000  Level FlightAware
Mon 09:43:14 PM 35.9250 -112.9330 243° Southwest 395 455 36,000  Level FlightAware
Mon 09:43:51 PM 35.8950 -113.0060 243° Southwest 394 453 36,000  Level FlightAware
Mon 09:44:22 PM 35.8690 -113.0700 243° Southwest 393 452 36,000  Level FlightAware
Mon 09:44:59 PM 35.8390 -113.1430 243° Southwest 394 453 36,000  Level FlightAware
Mon 09:45:34 PM 35.8100 -113.2130 243° Southwest 394 453 36,000  Level FlightAware
Mon 09:46:12 PM 35.7780 -113.2900 243° Southwest 394 453 36,000  Level FlightAware
Mon 09:46:42 PM 35.7540 -113.3490 243° Southwest 394 453 36,000  Level FlightAware
Mon 09:47:20 PM 35.7220 -113.4250 243° Southwest 395 455 36,000  Level FlightAware
Mon 09:47:56 PM 35.6930 -113.4960 243° Southwest 395 455 36,000  Level FlightAware
Mon 09:48:32 PM 35.6630 -113.5670 243° Southwest 396 456 36,000  Level FlightAware
Mon 09:49:04 PM 35.6350 -113.6330 242° Southwest 397 457 36,000  Level FlightAware
Mon 09:49:40 PM 35.6060 -113.7040 243° Southwest 398 458 36,000  Level FlightAware
Mon 09:50:16 PM 35.5750 -113.7770 242° Southwest 396 456 36,000  Level FlightAware
Mon 09:50:52 PM 35.5460 -113.8480 243° Southwest 395 455 36,000  Level FlightAware
Mon 09:51:24 PM 35.5200 -113.9090 242° Southwest 397 457 36,000  Level FlightAware
Mon 09:52:00 PM 35.4880 -113.9840 242° Southwest 398 458 36,000  Level FlightAware
Mon 09:52:36 PM 35.4580 -114.0570 243° Southwest 399 459 36,000  Level FlightAware
Mon 09:53:08 PM 35.4300 -114.1220 242° Southwest 398 458 36,000  Level FlightAware
Mon 09:53:44 PM 35.4000 -114.1940 243° Southwest 396 456 36,000  Level FlightAware
Mon 09:54:21 PM 35.3690 -114.2650 242° Southwest 394 453 36,000  Level FlightAware
Mon 09:54:56 PM 35.3390 -114.3360 243° Southwest 394 453 36,000  Level FlightAware
Mon 09:55:26 PM 35.3140 -114.3950 243° Southwest 393 452 36,000  Level FlightAware
Mon 09:56:04 PM 35.2830 -114.4660 242° Southwest 392 451 36,000  Level FlightAware
Mon 09:56:41 PM 35.2500 -114.5440 243° Southwest 392 451 36,000  Level FlightAware
Mon 09:57:17 PM 35.2210 -114.6130 243° Southwest 391 450 36,000  Level FlightAware
Mon 09:57:49 PM 35.1940 -114.6750 242° Southwest 391 450 36,000  Level FlightAware
Mon 09:58:23 PM 35.1650 -114.7420 242° Southwest 391 450 36,000  Level FlightAware
Mon 09:59:01 PM 35.1330 -114.8170 242° Southwest 393 452 36,000  Level FlightAware
Mon 09:59:34 PM 35.1060 -114.8790 242° Southwest 393 452 36,000  Level FlightAware
Mon 09:59:55 PM 35.0870 -114.9220 242° Southwest 393 452 36,000 -209 Level FlightAware
Mon 10:01:00 PM 35.0320 -115.0500 242° Southwest 389 448 35,700 -583 Descending FlightAware
Mon 10:01:38 PM 35.0000 -115.1220 242° Southwest 378 435 35,000 -1,114 Descending FlightAware
Mon 10:02:10 PM 34.9740 -115.1820 242° Southwest 374 430 34,400 -1,108 Descending FlightAware
Mon 10:02:43 PM 34.9490 -115.2400 242° Southwest 373 429 33,800 -1,000 Descending FlightAware
Mon 10:03:22 PM 34.9160 -115.3160 242° Southwest 371 427 33,200 -960 Descending FlightAware
Mon 10:03:58 PM 34.8870 -115.3820 242° Southwest 369 425 32,600 -1,083 Descending FlightAware
Mon 10:04:34 PM 34.8580 -115.4480 242° Southwest 371 427 31,900 -1,059 Descending FlightAware
Mon 10:05:06 PM 34.8320 -115.5060 241° Southwest 367 422 31,400 -971 Descending FlightAware
Mon 10:05:42 PM 34.8030 -115.5700 241° Southwest 365 420 30,800 -1,029 Descending FlightAware
Mon 10:06:16 PM 34.7770 -115.6310 243° Southwest 364 419 30,200 -1,000 Descending FlightAware
Mon 10:07:06 PM 34.7360 -115.7220 241° Southwest 365 420 29,400 -977 Descending FlightAware
Mon 10:07:42 PM 34.7070 -115.7880 242° Southwest 366 421 28,800 -674 Descending FlightAware
Mon 10:08:35 PM 34.6680 -115.8750 241° Southwest 364 419 28,400 -989 Descending FlightAware
Mon 10:09:13 PM 34.6360 -115.9480 242° Southwest 354 407 27,300 -1,083 Descending FlightAware
Mon 10:09:47 PM 34.6110 -116.0020 241° Southwest 353 406 27,100 -169 Descending FlightAware
Mon 10:10:24 PM 34.5860 -116.0570 241° Southwest 353 406 27,100  Level FlightAware
Mon 10:11:00 PM 34.5620 -116.1100 241° Southwest 353 406 27,100 -80 Level FlightAware
Mon 10:11:39 PM 34.5160 -116.2150 242° Southwest 397 457 27,000 -86 Descending FlightAware
Mon 10:12:10 PM 34.4880 -116.2760 241° Southwest 399 459 27,000  Level FlightAware
Mon 10:12:44 PM 34.4580 -116.3430 242° Southwest 399 459 27,000  Level FlightAware
Mon 10:13:32 PM 34.4150 -116.4390 242° Southwest 400 460 27,000  Level FlightAware
Mon 10:14:08 PM 34.3830 -116.5090 241° Southwest 400 460 27,000  Level FlightAware
Mon 10:14:40 PM 34.3550 -116.5710 241° Southwest 399 459 27,000  Level FlightAware
Mon 10:15:16 PM 34.3220 -116.6430 241° Southwest 418 481 27,000  Level FlightAware
Mon 10:15:52 PM 34.2890 -116.7160 241° Southwest 426 490 27,000 -1,167 Level FlightAware
Mon 10:16:28 PM 34.2540 -116.7920 241° Southwest 421 484 25,600 -2,471 Descending FlightAware
Mon 10:17:00 PM 34.2230 -116.8590 241° Southwest 417 480 24,200 -2,636 Descending FlightAware
Mon 10:17:34 PM 34.1920 -116.9270 241° Southwest 411 473 22,700 -2,417 Descending FlightAware
Mon 10:18:12 PM 34.1590 -117.0000 241° Southwest 397 457 21,300 -2,432 Descending FlightAware
Mon 10:18:48 PM 34.1260 -117.0700 240° Southwest 392 451 19,700 -2,824 Descending FlightAware
Mon 10:19:20 PM 34.0970 -117.1340 241° Southwest 396 456 18,100 -2,559 Descending FlightAware
Mon 10:19:56 PM 34.0670 -117.2010 242° Southwest 384 442 16,800 -2,167 Descending FlightAware
Mon 10:20:32 PM 34.0460 -117.2740 251° West 379 436 15,500 -2,143 Descending FlightAware
Mon 10:21:06 PM 34.0390 -117.3430 263° West 371 427 14,300 -1,941 Descending FlightAware
Mon 10:21:40 PM 34.0330 -117.4080 264° West 363 418 13,300 -1,756 Descending FlightAware
Mon 10:22:28 PM 34.0310 -117.5020 269° West 335 386 11,900 -1,440 Descending FlightAware
Mon 10:23:20 PM 34.0320 -117.5930 271° West 303 349 10,900 -1,159 Descending FlightAware
Mon 10:23:56 PM 34.0260 -117.6560 263° West 293 337 10,200 -1,071 Descending FlightAware
Mon 10:24:16 PM 34.0230 -117.6890 264° West 285 328 9,900 -750 Descending FlightAware
Mon 10:24:36 PM 34.0200 -117.7190 263° West 280 322 9,700 -1,050 Descending FlightAware
Mon 10:24:56 PM 34.0170 -117.7510 264° West 283 326 9,200 -1,317 Descending FlightAware
Mon 10:25:17 PM 34.0140 -117.7820 263° West 285 328 8,800 -1,200 Descending FlightAware
Mon 10:25:41 PM 34.0100 -117.8220 263° West 299 344 8,300 -1,167 Descending FlightAware
Mon 10:25:53 PM 34.0080 -117.8420 263° West 297 342 8,100 -1,125 Descending FlightAware
Mon 10:26:13 PM 34.0050 -117.8750 264° West 292 336 7,700 -1,364 Descending FlightAware
Mon 10:26:37 PM 34.0010 -117.9130 263° West 291 335 7,100 -1,674 Descending FlightAware
Mon 10:26:56 PM 33.9980 -117.9430 263° West 296 341 6,500 -1,350 Descending FlightAware
Mon 10:27:17 PM 33.9950 -117.9770 264° West 284 327 6,200 -878 Descending FlightAware
Mon 10:27:37 PM 33.9920 -118.0080 263° West 272 313 5,900 -955 Descending FlightAware
Mon 10:28:01 PM 33.9880 -118.0450 263° West 261 300 5,500 -955 Descending FlightAware
Mon 10:28:21 PM 33.9850 -118.0730 263° West 259 298 5,200 -1,000 Descending FlightAware
Mon 10:28:37 PM 33.9830 -118.0960 264° West 252 290 4,900 -1,116 Descending FlightAware
Mon 10:29:04 PM 33.9790 -118.1320 262° West 246 283 4,400 -1,304 Descending FlightAware
Mon 10:29:23 PM 33.9770 -118.1580 265° West 234 269 3,900 -1,231 Descending FlightAware
Mon 10:29:43 PM 33.9740 -118.1820 261° West 220 253 3,600 -947 Descending FlightAware
Mon 10:30:01 PM 33.9720 -118.2030 263° West 211 243 3,300 -1,091 Descending FlightAware
Mon 10:30:27 PM 33.9700 -118.2280 264° West 202 232 2,800 -1,235 Descending FlightAware
Mon 10:30:35 PM 33.9680 -118.2420 260° West 201 231 2,600 -1,125 Descending FlightAware
Mon 10:30:59 PM 33.9660 -118.2680 265° West 204 235 2,200 -900 Descending FlightAware
Mon 10:31:15 PM 33.9640 -118.2810 259° West 204 235 2,000 -1,077 Descending FlightAware
Mon 10:31:38 PM 33.9610 -118.3110 263° West 185 213 1,500 -1,077 Descending FlightAware
Mon 10:31:54 PM 33.9600 -118.3270 266° West 174 200 1,300 -714 Descending FlightAware
Mon 10:32:20 PM 33.9580 -118.3480 263° West 160 184 1,000 -818 Descending FlightAware
Mon 10:32:38 PM 33.9560 -118.3650 262° West 139 160 700 -750 Descending FlightAware
Mon 10:33:00 PM 33.9540 -118.3800 261° West 138 159 500 -381 Descending FlightAware
Mon 10:33:41 PM 33.9510 -118.4100 263° West 139 160 300 -293 Descending FlightAware
Mon 10:41:00 PM 33.9425 -118.4081 259° West  Level Estimated

Login

Don't have an account? Register now (free) for customized features, flight alerts, and more!